Time;durP1;ratioP1;P1;durP2;ratioP2;P2;SDS_P1;SDS_P2;PMS_P1;PMS_P2;Temp;Humidity;BMP_temperature;BMP_pressure;BME280_temperature;BME280_humidity;BME280_pressure;Samples;Min_cycle;Max_cycle;Signal;HPM_P1;HPM_P2
2022/07/14 00:00:22;;;;;;;3.27;1.57;;;29.10;44.80;;;;;;5034684;28;20443;-78
2022/07/14 00:02:49;;;;;;;2.70;1.60;;;29.10;44.80;;;;;;5034739;28;20570;-78
2022/07/14 00:05:19;;;;;;;1.43;1.33;;;29.10;44.80;;;;;;5034571;28;20440;-78
2022/07/14 00:07:46;;;;;;;2.27;1.80;;;29.10;44.90;;;;;;5034728;28;20443;-77
2022/07/14 00:10:14;;;;;;;2.83;1.50;;;29.10;44.90;;;;;;5029828;28;20469;-78
2022/07/14 00:12:42;;;;;;;2.30;1.50;;;29.10;44.90;;;;;;5034685;28;20468;-79
2022/07/14 00:15:11;;;;;;;2.87;1.63;;;29.10;45.00;;;;;;5035008;28;20498;-78
2022/07/14 00:17:38;;;;;;;4.20;1.80;;;29.10;45.00;;;;;;5034996;28;20507;-78
2022/07/14 00:20:07;;;;;;;3.27;1.50;;;29.00;45.10;;;;;;5034233;28;20442;-78
2022/07/14 00:22:36;;;;;;;8.90;1.40;;;29.00;45.00;;;;;;5042884;28;20474;-79
2022/07/14 00:25:04;;;;;;;3.70;1.40;;;29.00;45.10;;;;;;5055346;28;20445;-78
2022/07/14 00:27:32;;;;;;;2.93;1.73;;;29.00;45.10;;;;;;5055519;28;20878;-79
2022/07/14 00:30:00;;;;;;;3.07;1.57;;;29.00;45.20;;;;;;5055185;28;20442;-79
2022/07/14 00:32:28;;;;;;;7.53;1.70;;;29.00;45.30;;;;;;5053909;28;20437;-78
2022/07/14 00:34:57;;;;;;;4.97;1.90;;;29.00;45.30;;;;;;5053630;28;20518;-78
2022/07/14 00:37:25;;;;;;;5.10;1.97;;;29.00;45.30;;;;;;5054410;28;20474;-78
2022/07/14 00:39:57;;;;;;;2.40;1.67;;;28.90;45.10;;;;;;5054160;28;20441;-77
2022/07/14 00:42:32;;;;;;;2.53;1.50;;;28.90;45.20;;;;;;5054094;28;20506;-78
2022/07/14 00:45:01;;;;;;;2.70;1.50;;;28.90;45.30;;;;;;5054075;28;20475;-78
2022/07/14 00:47:29;;;;;;;2.50;1.30;;;28.90;45.30;;;;;;5054294;28;20474;-78
2022/07/14 00:49:57;;;;;;;3.47;1.37;;;28.90;45.40;;;;;;5054770;28;20417;-78
2022/07/14 00:52:25;;;;;;;4.30;1.67;;;28.90;45.40;;;;;;5054433;28;20508;-78
2022/07/14 00:54:55;;;;;;;3.03;1.90;;;28.90;45.40;;;;;;5054641;28;20457;-77
2022/07/14 00:57:22;;;;;;;1.73;1.23;;;28.90;45.40;;;;;;5053658;28;20441;-78
2022/07/14 00:59:50;;;;;;;3.83;1.40;;;28.90;45.40;;;;;;5054025;28;20573;-78
2022/07/14 01:02:18;;;;;;;1.87;1.30;;;28.90;45.50;;;;;;5054371;28;20468;-77
2022/07/14 01:04:47;;;;;;;1.57;1.47;;;28.90;45.40;;;;;;5054773;28;20475;-77
2022/07/14 01:07:16;;;;;;;2.60;1.43;;;28.80;45.40;;;;;;5055182;28;20434;-78
2022/07/14 01:09:44;;;;;;;1.90;1.63;;;28.80;45.60;;;;;;5051946;28;20538;-77
2022/07/14 01:12:13;;;;;;;1.70;1.20;;;28.80;45.50;;;;;;5051737;28;20453;-77
2022/07/14 01:14:41;;;;;;;2.97;1.70;;;28.80;45.50;;;;;;5052335;28;20416;-77
2022/07/14 01:17:09;;;;;;;4.43;1.50;;;28.80;45.60;;;;;;5053131;28;20538;-77
2022/07/14 01:19:37;;;;;;;3.13;1.57;;;28.80;45.60;;;;;;5051696;28;20510;-77
2022/07/14 01:22:06;;;;;;;4.70;1.63;;;28.70;45.60;;;;;;5048151;28;20536;-78
2022/07/14 01:24:34;;;;;;;3.83;1.20;;;28.70;45.70;;;;;;5032879;28;20543;-78
2022/07/14 01:27:02;;;;;;;5.70;1.53;;;28.70;45.80;;;;;;5033989;28;20420;-78
2022/07/14 01:29:30;;;;;;;1.73;1.60;;;28.70;45.70;;;;;;5033714;28;20903;-78
2022/07/14 01:31:58;;;;;;;3.23;1.33;;;28.70;45.70;;;;;;5033137;28;20444;-78
2022/07/14 01:34:27;;;;;;;1.93;1.27;;;28.80;45.80;;;;;;5032628;28;20550;-77
2022/07/14 01:36:54;;;;;;;2.43;1.40;;;28.80;45.80;;;;;;5035023;28;20505;-78
2022/07/14 01:39:24;;;;;;;2.20;1.27;;;28.70;45.70;;;;;;5038268;28;20435;-77
2022/07/14 01:41:52;;;;;;;1.33;1.23;;;28.70;45.90;;;;;;5039306;28;20438;-77
2022/07/14 01:44:20;;;;;;;2.80;1.43;;;28.70;45.90;;;;;;5039989;28;20538;-78
2022/07/14 01:46:48;;;;;;;4.30;1.70;;;28.70;45.90;;;;;;5040222;28;20537;-78
2022/07/14 01:49:16;;;;;;;2.97;1.40;;;28.70;46.00;;;;;;5039546;28;20481;-78
2022/07/14 01:51:45;;;;;;;2.70;1.60;;;28.70;45.80;;;;;;5038624;28;20454;-78
2022/07/14 01:54:13;;;;;;;2.60;1.30;;;28.60;46.00;;;;;;5038128;28;20474;-78
2022/07/14 01:56:42;;;;;;;2.17;1.30;;;28.60;46.00;;;;;;5037874;28;20926;-78
2022/07/14 01:59:10;;;;;;;3.53;1.40;;;28.60;46.00;;;;;;5038846;28;20489;-77
2022/07/14 02:01:41;;;;;;;1.47;1.10;;;28.60;46.10;;;;;;5038260;28;20457;-77
2022/07/14 02:04:10;;;;;;;5.27;1.27;;;28.60;46.00;;;;;;5038653;28;20497;-78
2022/07/14 02:06:40;;;;;;;3.00;1.40;;;28.60;46.10;;;;;;5039488;28;20538;-78
2022/07/14 02:09:08;;;;;;;3.40;1.40;;;28.60;46.00;;;;;;5039695;28;20530;-78
2022/07/14 02:14:23;;;;;;;4.37;1.57;;;28.60;46.10;;;;;;5042240;28;20505;-78
2022/07/14 02:16:51;;;;;;;8.07;1.70;;;28.50;46.10;;;;;;5053266;28;20538;-80
2022/07/14 02:19:19;;;;;;;4.80;1.73;;;28.50;46.20;;;;;;5067543;28;20538;-78
2022/07/14 02:21:47;;;;;;;3.77;1.00;;;28.50;46.20;;;;;;5056215;28;20521;-79
2022/07/14 02:24:15;;;;;;;4.87;1.40;;;28.60;46.20;;;;;;5053486;28;20475;-78
2022/07/14 02:26:43;;;;;;;9.23;1.70;;;28.50;46.00;;;;;;5057340;28;20445;-78
2022/07/14 02:29:11;;;;;;;6.90;1.87;;;28.50;46.00;;;;;;5055574;28;20505;-79
2022/07/14 02:31:42;;;;;;;5.77;1.57;;;28.50;46.00;;;;;;5058698;28;20468;-79
2022/07/14 02:34:10;;;;;;;7.60;1.57;;;28.50;46.10;;;;;;5059232;28;20550;-79
2022/07/14 02:36:38;;;;;;;5.90;1.57;;;28.50;46.00;;;;;;5053746;28;20402;-79
2022/07/14 02:39:06;;;;;;;4.90;1.40;;;28.50;45.90;;;;;;5051960;28;20406;-78
2022/07/14 02:41:34;;;;;;;2.93;1.30;;;28.50;45.80;;;;;;5046901;28;20519;-77
2022/07/14 02:44:01;;;;;;;2.70;1.10;;;28.40;46.00;;;;;;5051374;28;20441;-78
2022/07/14 02:46:29;;;;;;;3.80;1.50;;;28.40;45.90;;;;;;5063883;28;20494;-78
2022/07/14 02:48:59;;;;;;;7.90;1.20;;;28.40;45.90;;;;;;5068295;28;20502;-78
2022/07/14 02:51:27;;;;;;;3.70;1.60;;;28.40;45.80;;;;;;5059958;28;20544;-79
2022/07/14 02:53:54;;;;;;;5.70;1.33;;;28.40;45.80;;;;;;5051804;28;20533;-78
2022/07/14 02:56:22;;;;;;;10.47;2.30;;;28.40;45.80;;;;;;5060387;28;20443;-78
2022/07/14 02:58:50;;;;;;;3.67;1.47;;;28.40;45.90;;;;;;5060512;28;20887;-78
2022/07/14 03:01:18;;;;;;;3.43;1.33;;;28.40;46.00;;;;;;5060869;28;20453;-78
2022/07/14 03:03:46;;;;;;;7.40;1.40;;;28.30;46.00;;;;;;5061007;28;20505;-78
2022/07/14 03:06:16;;;;;;;5.33;1.53;;;28.30;45.80;;;;;;5059184;28;20448;-78
2022/07/14 03:08:44;;;;;;;4.40;1.53;;;28.30;46.00;;;;;;5057044;28;20505;-78
2022/07/14 03:11:12;;;;;;;3.87;1.43;;;28.30;45.90;;;;;;5039594;28;20530;-78
2022/07/14 03:13:40;;;;;;;3.37;1.33;;;28.30;45.90;;;;;;5040389;28;20464;-78
2022/07/14 03:16:09;;;;;;;4.20;1.30;;;28.30;45.80;;;;;;5039604;28;20539;-78
2022/07/14 03:18:39;;;;;;;1.30;1.17;;;28.30;45.80;;;;;;5039848;28;20493;-78
2022/07/14 03:21:07;;;;;;;5.40;1.40;;;28.30;45.90;;;;;;5039479;28;20447;-78
2022/07/14 03:23:37;;;;;;;6.00;1.67;;;28.30;45.80;;;;;;5049108;28;20487;-78
2022/07/14 03:26:06;;;;;;;3.97;1.27;;;28.30;45.80;;;;;;5060136;28;20521;-78
2022/07/14 03:28:33;;;;;;;5.07;1.40;;;28.30;45.80;;;;;;5056271;28;20447;-78
2022/07/14 03:31:02;;;;;;;1.10;1.00;;;28.20;45.80;;;;;;5071800;28;20456;-78
2022/07/14 03:33:31;;;;;;;5.73;1.27;;;28.20;45.90;;;;;;5071241;28;20457;-79
2022/07/14 03:35:59;;;;;;;3.20;1.47;;;28.20;46.50;;;;;;5079824;28;20483;-79
2022/07/14 03:38:26;;;;;;;5.07;1.83;;;28.20;45.70;;;;;;5054803;28;20455;-79
2022/07/14 03:41:06;;;;;;;3.07;1.00;;;28.20;45.80;;;;;;5040525;28;20538;-78
2022/07/14 03:43:35;;;;;;;4.90;1.30;;;28.20;45.70;;;;;;5039452;28;20510;-78
2022/07/14 03:46:03;;;;;;;3.10;1.20;;;28.20;45.80;;;;;;5038270;28;20455;-78
2022/07/14 03:48:31;;;;;;;3.80;1.60;;;28.20;45.90;;;;;;5036330;28;20548;-78
2022/07/14 03:50:59;;;;;;;7.57;1.87;;;28.20;45.90;;;;;;5036653;28;20546;-78
2022/07/14 03:53:29;;;;;;;6.60;1.70;;;28.20;45.80;;;;;;5040106;28;20569;-78
2022/07/14 03:55:57;;;;;;;4.93;1.60;;;28.20;45.90;;;;;;5049707;28;20439;-78
2022/07/14 03:58:27;;;;;;;1.83;1.23;;;28.20;45.90;;;;;;5057717;28;20446;-78
2022/07/14 04:00:55;;;;;;;2.57;1.63;;;28.20;45.80;;;;;;5057611;28;20840;-78
2022/07/14 04:03:23;;;;;;;2.70;1.43;;;28.20;45.90;;;;;;5057415;28;20478;-78
2022/07/14 04:05:50;;;;;;;3.63;1.53;;;28.10;45.90;;;;;;5055271;28;20462;-78
2022/07/14 04:08:18;;;;;;;2.10;1.30;;;28.10;45.90;;;;;;5055720;28;20542;-78
2022/07/14 04:10:46;;;;;;;2.13;1.13;;;28.10;45.90;;;;;;5056297;28;20518;-78
2022/07/14 04:13:15;;;;;;;2.53;1.20;;;28.10;45.90;;;;;;5049747;28;20444;-78
2022/07/14 04:15:44;;;;;;;4.00;1.53;;;28.10;45.90;;;;;;5063551;28;20508;-78
2022/07/14 04:18:13;;;;;;;4.37;1.57;;;28.10;45.90;;;;;;5067577;28;20500;-78
2022/07/14 04:20:47;;;;;;;6.90;1.30;;;28.10;45.80;;;;;;5075004;28;20507;-78
2022/07/14 04:23:14;;;;;;;3.00;1.03;;;28.10;45.90;;;;;;5078500;28;20541;-78
2022/07/14 04:25:42;;;;;;;1.60;1.43;;;28.10;45.80;;;;;;5079487;28;20452;-78
2022/07/14 04:28:10;;;;;;;2.07;1.20;;;28.10;45.90;;;;;;5066240;28;20538;-78
2022/07/14 04:30:38;;;;;;;2.03;1.30;;;28.10;45.80;;;;;;5049916;28;20474;-78
2022/07/14 04:33:10;;;;;;;3.23;1.13;;;28.10;45.90;;;;;;5059080;28;20454;-78
2022/07/14 04:35:38;;;;;;;4.40;1.70;;;28.10;45.90;;;;;;5043253;28;20424;-78
2022/07/14 04:38:06;;;;;;;2.70;1.63;;;28.10;45.90;;;;;;5038640;28;20443;-78
2022/07/14 04:40:34;;;;;;;3.13;1.23;;;28.10;45.90;;;;;;5037874;28;20436;-78
2022/07/14 04:43:02;;;;;;;4.03;1.60;;;28.10;45.70;;;;;;5037788;28;20566;-78
2022/07/14 04:45:30;;;;;;;4.23;1.43;;;28.10;45.80;;;;;;5048420;28;20480;-78
2022/07/14 04:47:58;;;;;;;3.20;1.40;;;28.10;45.90;;;;;;5047601;28;20442;-78
2022/07/14 04:53:15;;;;;;;3.20;1.60;;;28.10;45.80;;;;;;5022585;28;20459;-77
2022/07/14 04:55:43;;;;;;;2.20;1.30;;;28.10;45.70;;;;;;5056341;28;20533;-78
2022/07/14 04:58:11;;;;;;;2.10;1.17;;;28.10;45.80;;;;;;5056010;28;20502;-78
2022/07/14 05:00:39;;;;;;;2.23;1.40;;;28.10;45.90;;;;;;5056315;28;20451;-78
2022/07/14 05:03:08;;;;;;;4.00;1.13;;;28.10;45.80;;;;;;5052356;28;20525;-78
2022/07/14 05:05:37;;;;;;;2.97;1.37;;;28.10;45.70;;;;;;5056235;28;20445;-78
2022/07/14 05:08:05;;;;;;;1.80;1.17;;;28.10;45.70;;;;;;5060004;28;20518;-78
2022/07/14 05:10:33;;;;;;;2.00;1.27;;;28.10;45.80;;;;;;5059405;28;20539;-78
2022/07/14 05:13:01;;;;;;;1.63;1.23;;;28.10;45.80;;;;;;5060114;28;20518;-78
2022/07/14 05:15:29;;;;;;;5.67;1.77;;;28.00;45.70;;;;;;5060536;28;20466;-78
2022/07/14 05:17:57;;;;;;;3.33;1.13;;;28.10;45.80;;;;;;5060195;28;20544;-78
2022/07/14 05:20:25;;;;;;;2.70;1.30;;;28.10;45.70;;;;;;5045877;28;20407;-79
2022/07/14 05:22:54;;;;;;;2.03;1.30;;;28.10;45.80;;;;;;5041780;28;20525;-79
2022/07/14 05:25:22;;;;;;;2.67;1.27;;;28.10;45.70;;;;;;5040359;28;20558;-79
2022/07/14 05:27:50;;;;;;;5.43;1.30;;;28.20;45.70;;;;;;5040324;28;20511;-78
2022/07/14 05:30:18;;;;;;;2.10;1.47;;;28.20;45.60;;;;;;5039737;28;20426;-78
2022/07/14 05:32:46;;;;;;;2.17;1.50;;;28.20;45.60;;;;;;5048964;28;20517;-78
2022/07/14 05:35:14;;;;;;;2.10;1.20;;;28.20;45.50;;;;;;5054187;28;20435;-78
2022/07/14 05:37:42;;;;;;;3.00;1.23;;;28.20;45.50;;;;;;5038960;28;20541;-79
2022/07/14 05:40:12;;;;;;;2.87;1.23;;;28.30;45.50;;;;;;5039996;28;20447;-78
2022/07/14 05:42:41;;;;;;;3.07;1.30;;;28.30;45.40;;;;;;5039576;28;20474;-78
2022/07/14 05:45:10;;;;;;;6.87;1.17;;;28.30;45.30;;;;;;5039414;28;20554;-78
2022/07/14 05:47:38;;;;;;;6.17;1.40;;;28.40;45.40;;;;;;5040191;28;20541;-78
2022/07/14 05:50:07;;;;;;;3.60;1.53;;;28.30;45.30;;;;;;5043674;28;20837;-78
2022/07/14 05:52:35;;;;;;;2.47;1.30;;;28.40;45.20;;;;;;5049875;28;20491;-78
2022/07/14 05:55:03;;;;;;;3.17;1.37;;;28.40;45.30;;;;;;5059642;28;20442;-78
2022/07/14 05:57:33;;;;;;;6.43;1.80;;;28.40;45.30;;;;;;5059724;28;20545;-79
2022/07/14 06:00:08;;;;;;;4.60;1.50;;;28.40;45.30;;;;;;5059736;28;20446;-79
2022/07/14 06:02:36;;;;;;;2.70;1.23;;;28.40;45.20;;;;;;5058685;28;20485;-78
2022/07/14 06:05:05;;;;;;;2.20;1.50;;;28.40;45.30;;;;;;5059131;28;20483;-78
2022/07/14 06:07:33;;;;;;;3.20;1.00;;;28.40;45.40;;;;;;5057267;28;20485;-78
2022/07/14 06:10:01;;;;;;;1.47;1.37;;;28.40;45.30;;;;;;5049398;28;20424;-78
2022/07/14 06:12:29;;;;;;;1.50;1.23;;;28.40;45.30;;;;;;5056910;28;20446;-78
2022/07/14 06:14:59;;;;;;;2.40;1.20;;;28.30;45.30;;;;;;5057815;28;20480;-78
2022/07/14 06:17:27;;;;;;;2.27;1.30;;;28.30;45.40;;;;;;5057897;28;20537;-78
2022/07/14 06:19:55;;;;;;;1.40;1.10;;;28.30;45.40;;;;;;5060138;28;20510;-79
2022/07/14 06:22:23;;;;;;;3.90;1.20;;;28.30;45.40;;;;;;5061916;28;20517;-79
2022/07/14 06:24:50;;;;;;;1.10;0.97;;;28.40;45.40;;;;;;5061358;28;20637;-79
2022/07/14 06:27:18;;;;;;;1.60;1.20;;;28.40;45.40;;;;;;5059425;28;20494;-79
2022/07/14 06:29:46;;;;;;;2.00;1.20;;;28.30;45.40;;;;;;5065913;28;20457;-78
2022/07/14 06:32:15;;;;;;;1.40;1.30;;;28.40;45.50;;;;;;5066850;28;20474;-79
2022/07/14 06:34:45;;;;;;;1.80;1.40;;;28.30;45.40;;;;;;5069214;28;20440;-79
2022/07/14 06:37:14;;;;;;;5.77;1.30;;;28.40;45.50;;;;;;5069240;28;20446;-79
2022/07/14 06:39:42;;;;;;;2.83;1.43;;;28.40;45.40;;;;;;5071999;28;20952;-79
2022/07/14 06:42:10;;;;;;;1.50;1.40;;;28.40;45.30;;;;;;5074263;28;20453;-79
2022/07/14 06:44:38;;;;;;;2.73;1.00;;;28.50;45.40;;;;;;5078828;28;20493;-79
2022/07/14 06:47:06;;;;;;;1.80;1.23;;;28.50;45.30;;;;;;5081401;28;20532;-79
2022/07/14 06:49:35;;;;;;;2.03;1.40;;;28.50;45.20;;;;;;5087276;28;20446;-79
2022/07/14 06:52:05;;;;;;;1.37;1.20;;;28.50;45.20;;;;;;5087451;28;20465;-79
2022/07/14 06:54:33;;;;;;;2.30;1.40;;;28.50;45.10;;;;;;5086394;28;20485;-79
2022/07/14 06:57:01;;;;;;;1.43;1.20;;;28.50;45.20;;;;;;5061425;28;20479;-79
2022/07/14 06:59:29;;;;;;;1.37;1.27;;;28.50;45.10;;;;;;5062649;28;20445;-79
2022/07/14 07:01:56;;;;;;;2.20;1.20;;;28.60;45.20;;;;;;5066961;28;20540;-79
2022/07/14 07:04:25;;;;;;;2.83;1.17;;;28.60;45.20;;;;;;5067110;28;20493;-79
2022/07/14 07:06:56;;;;;;;1.73;1.10;;;28.60;45.20;;;;;;5066110;28;20850;-79
2022/07/14 07:09:24;;;;;;;3.33;1.30;;;28.60;45.00;;;;;;5067056;28;20502;-79
2022/07/14 07:11:52;;;;;;;3.07;1.40;;;28.70;45.00;;;;;;5065568;28;20465;-79
2022/07/14 07:14:20;;;;;;;2.77;1.20;;;28.70;44.90;;;;;;5056229;28;20526;-79
2022/07/14 07:16:49;;;;;;;1.67;1.20;;;28.80;44.80;;;;;;5059463;28;20469;-79
2022/07/14 07:19:17;;;;;;;1.30;1.20;;;28.80;44.80;;;;;;5068076;28;20883;-80
2022/07/14 07:21:45;;;;;;;1.50;1.20;;;28.90;44.70;;;;;;5075347;28;20531;-78
2022/07/14 07:24:14;;;;;;;3.43;1.30;;;28.90;44.60;;;;;;5076726;28;20478;-78
2022/07/14 07:26:43;;;;;;;1.33;1.23;;;28.90;44.60;;;;;;5065208;28;20561;-80
2022/07/14 07:29:10;;;;;;;3.50;1.30;;;29.00;44.50;;;;;;5055916;28;20475;-79
2022/07/14 07:31:38;;;;;;;1.00;1.00;;;29.00;44.40;;;;;;5046557;28;20446;-79
2022/07/14 07:34:07;;;;;;;1.83;1.10;;;29.00;44.40;;;;;;5045826;28;20479;-79
2022/07/14 07:36:35;;;;;;;1.70;1.30;;;29.10;44.40;;;;;;5046410;28;20440;-79
2022/07/14 07:39:21;;;;;;;1.20;1.10;;;29.20;44.20;;;;;;5055836;28;20435;-79
2022/07/14 07:41:49;;;;;;;2.50;1.33;;;29.30;44.10;;;;;;5057098;28;20429;-79
2022/07/14 07:44:17;;;;;;;2.70;1.40;;;29.30;44.00;;;;;;5053710;28;20479;-79
2022/07/14 07:46:45;;;;;;;1.30;1.20;;;29.30;44.10;;;;;;5054672;28;20491;-79
2022/07/14 07:49:13;;;;;;;2.60;1.53;;;29.30;43.90;;;;;;5046846;28;20451;-79
2022/07/14 07:51:41;;;;;;;1.50;1.40;;;29.20;44.00;;;;;;5043349;28;20530;-81
2022/07/14 07:54:09;;;;;;;9.57;1.47;;;29.10;44.00;;;;;;5039413;28;20547;-80
2022/07/14 07:56:38;;;;;;;4.00;1.60;;;29.10;44.20;;;;;;5041388;28;20463;-80
2022/07/14 07:59:06;;;;;;;3.20;1.93;;;29.20;44.40;;;;;;5043715;28;20439;-79
2022/07/14 08:01:34;;;;;;;9.77;1.80;;;29.30;44.00;;;;;;5048310;28;20453;-78
2022/07/14 08:04:02;;;;;;;11.43;2.00;;;29.40;44.10;;;;;;5053798;28;20454;-80
2022/07/14 08:06:30;;;;;;;7.33;1.50;;;29.40;44.70;;;;;;5046369;28;20556;-79
2022/07/14 08:09:10;;;;;;;6.27;1.83;;;29.40;44.10;;;;;;5061623;28;20511;-79
2022/07/14 08:11:40;;;;;;;4.30;2.20;;;29.40;43.70;;;;;;5064504;28;20459;-80
2022/07/14 08:14:47;;;;;;;5.33;2.13;;;29.40;43.10;;;;;;5063841;28;20501;-79
2022/07/14 08:16:56;;;;;;;4.33;1.30;;;29.40;42.60;;;;;;5051429;28;20465;-79
2022/07/14 08:19:25;;;;;;;5.20;1.67;;;29.50;41.80;;;;;;5064209;28;20448;-79
2022/07/14 08:21:53;;;;;;;3.60;1.70;;;29.60;41.10;;;;;;5063404;28;20466;-79
2022/07/14 08:24:23;;;;;;;5.27;1.30;;;29.60;40.20;;;;;;5064003;28;20470;-79
2022/07/14 08:26:52;;;;;;;4.47;1.30;;;29.60;39.90;;;;;;5063544;28;20469;-79
2022/07/14 08:29:20;;;;;;;4.20;1.47;;;29.50;39.80;;;;;;5064063;28;20480;-79
2022/07/14 08:31:48;;;;;;;4.47;1.57;;;29.50;39.70;;;;;;5061561;28;20446;-80
2022/07/14 08:34:17;;;;;;;4.00;1.63;;;29.50;39.40;;;;;;5057249;28;20501;-80
2022/07/14 08:36:45;;;;;;;2.20;1.37;;;29.50;39.10;;;;;;5057039;28;20530;-81
2022/07/14 08:39:13;;;;;;;2.50;1.10;;;29.50;38.60;;;;;;5057250;28;20444;-79
2022/07/14 08:41:43;;;;;;;2.67;1.40;;;29.60;38.10;;;;;;5057864;28;20538;-80
2022/07/14 08:44:13;;;;;;;5.87;1.43;;;29.60;37.70;;;;;;5056197;28;20557;-80
2022/07/14 08:46:41;;;;;;;2.60;1.20;;;29.70;37.60;;;;;;5055507;28;20471;-80
2022/07/14 08:49:11;;;;;;;2.93;1.10;;;29.80;37.30;;;;;;5056994;28;20443;-80
2022/07/14 08:51:40;;;;;;;3.23;1.20;;;29.80;36.60;;;;;;5056629;28;20717;-80
2022/07/14 08:54:08;;;;;;;3.80;1.80;;;29.80;36.10;;;;;;5057700;28;20509;-80
2022/07/14 08:56:36;;;;;;;2.10;1.00;;;29.80;36.20;;;;;;5055841;28;20442;-78
2022/07/14 08:59:05;;;;;;;4.17;1.40;;;29.90;36.10;;;;;;5054731;28;20451;-78
2022/07/14 09:01:34;;;;;;;3.00;1.37;;;29.90;35.80;;;;;;5056236;28;20446;-79
2022/07/14 09:04:02;;;;;;;1.60;1.50;;;29.80;36.10;;;;;;5055895;28;20524;-79
2022/07/14 09:06:46;;;;;;;2.63;1.43;;;29.90;36.50;;;;;;5056397;28;20466;-79
2022/07/14 09:09:17;;;;;;;3.67;1.47;;;29.90;36.60;;;;;;5056817;28;20438;-79
2022/07/14 09:11:56;;;;;;;3.67;1.40;;;29.90;36.60;;;;;;5057250;28;20431;-80
2022/07/14 09:14:26;;;;;;;1.90;1.10;;;29.90;36.40;;;;;;5056408;28;20462;-79
2022/07/14 09:17:10;;;;;;;3.77;1.20;;;30.00;36.10;;;;;;5056889;28;20462;-79
2022/07/14 09:19:39;;;;;;;1.73;1.10;;;30.00;35.70;;;;;;5056176;28;20462;-79
2022/07/14 09:22:06;;;;;;;4.80;1.20;;;30.00;35.10;;;;;;5058276;28;20478;-79
2022/07/14 09:24:34;;;;;;;2.70;0.77;;;30.10;34.50;;;;;;5055684;28;20490;-80
2022/07/14 09:27:02;;;;;;;1.47;0.80;;;30.10;34.10;;;;;;5057135;28;20485;-81
2022/07/14 09:29:30;;;;;;;4.97;1.00;;;30.20;34.10;;;;;;5059521;28;20441;-81
2022/07/14 09:31:59;;;;;;;2.87;1.40;;;30.30;34.10;;;;;;5058249;28;20413;-81
2022/07/14 09:34:28;;;;;;;3.83;0.90;;;30.40;33.80;;;;;;5057066;28;20489;-80
2022/07/14 09:37:13;;;;;;;1.53;1.00;;;30.40;33.00;;;;;;5060091;28;20528;-82
2022/07/14 09:39:52;;;;;;;2.70;0.73;;;30.30;32.60;;;;;;5058044;28;20434;-81
2022/07/14 09:42:20;;;;;;;4.30;1.17;;;30.40;32.80;;;;;;5057884;28;20530;-80
2022/07/14 09:44:47;;;;;;;0.80;0.80;;;30.50;33.00;;;;;;5057633;28;20551;-79
2022/07/14 09:47:16;;;;;;;1.80;1.00;;;30.60;33.20;;;;;;5058545;28;20537;-81
2022/07/14 09:49:44;;;;;;;1.70;1.00;;;30.60;32.90;;;;;;5058184;28;20461;-80
2022/07/14 09:52:32;;;;;;;1.03;0.80;;;30.70;32.70;;;;;;5058078;28;20524;-82
2022/07/14 09:55:00;;;;;;;1.40;0.80;;;30.70;32.50;;;;;;5058637;28;20529;-80
2022/07/14 09:57:28;;;;;;;1.80;0.93;;;30.70;32.20;;;;;;5059558;28;20521;-80
2022/07/14 09:59:57;;;;;;;1.67;0.87;;;30.80;32.00;;;;;;5064300;28;20856;-80
2022/07/14 10:02:30;;;;;;;2.13;0.63;;;30.80;31.90;;;;;;5064054;28;20529;-80
2022/07/14 10:05:07;;;;;;;2.40;0.80;;;30.90;32.00;;;;;;5064577;28;20446;-80
2022/07/14 10:07:44;;;;;;;1.90;0.80;;;30.90;31.80;;;;;;5064093;28;20462;-81
2022/07/14 10:10:15;;;;;;;1.63;0.80;;;30.90;31.90;;;;;;5063707;28;20437;-81
2022/07/14 10:12:45;;;;;;;0.83;0.80;;;30.80;31.80;;;;;;5061178;28;20486;-79
2022/07/14 10:15:13;;;;;;;0.80;0.70;;;30.80;31.80;;;;;;5061098;28;20447;-80
2022/07/14 10:17:43;;;;;;;2.17;0.90;;;30.70;31.50;;;;;;5061698;28;20460;-80
2022/07/14 10:20:12;;;;;;;2.43;0.90;;;30.70;31.20;;;;;;5062830;28;20461;-80
2022/07/14 10:22:41;;;;;;;1.63;0.70;;;30.70;31.30;;;;;;5062479;28;20477;-80
2022/07/14 10:25:10;;;;;;;3.80;0.90;;;30.70;31.30;;;;;;5062852;28;20534;-83
2022/07/14 10:27:40;;;;;;;2.43;0.93;;;30.80;31.40;;;;;;5060896;28;20489;-82
2022/07/14 10:30:09;;;;;;;3.33;1.00;;;30.10;32.00;;;;;;5060958;28;20446;-82
2022/07/14 10:32:43;;;;;;;1.57;1.20;;;29.10;33.60;;;;;;5060489;28;20470;-82
2022/07/14 10:35:22;;;;;;;1.40;0.80;;;28.60;34.80;;;;;;5061223;28;20450;-83
2022/07/14 10:37:55;;;;;;;1.10;1.00;;;29.00;34.80;;;;;;5061049;28;20530;-82
2022/07/14 10:40:29;;;;;;;1.73;1.10;;;29.10;34.50;;;;;;5060322;28;20446;-81
2022/07/14 10:43:01;;;;;;;2.03;0.80;;;28.20;35.40;;;;;;5060898;28;20545;-82
2022/07/14 10:45:47;;;;;;;1.63;1.33;;;28.10;36.20;;;;;;5044243;28;20451;-82
2022/07/14 10:48:27;;;;;;;1.10;0.80;;;28.20;36.90;;;;;;5059840;28;21081;-80
2022/07/14 10:51:18;;;;;;;3.13;0.83;;;28.20;36.60;;;;;;5038887;28;20518;-81
2022/07/14 10:53:59;;;;;;;3.33;0.70;;;28.50;36.20;;;;;;5040072;28;20494;-81
2022/07/14 10:56:47;;;;;;;2.87;0.83;;;28.60;35.20;;;;;;5053623;28;20422;-82
2022/07/14 10:59:36;;;;;;;3.67;1.30;;;28.50;35.60;;;;;;5066121;28;20453;-81
2022/07/14 11:02:31;;;;;;;2.60;1.40;;;28.30;35.30;;;;;;5048892;28;20462;-80
2022/07/14 11:05:08;;;;;;;2.23;0.70;;;27.90;36.50;;;;;;5058289;28;20459;-80
2022/07/14 11:07:38;;;;;;;1.60;0.97;;;27.60;35.40;;;;;;5039963;28;20550;-79
2022/07/14 11:11:02;;;;;;;2.13;0.90;;;27.20;36.30;;;;;;5055404;28;20474;-79
2022/07/14 11:13:30;;;;;;;1.47;0.80;;;27.30;38.00;;;;;;5041217;28;20562;-79
2022/07/14 11:15:59;;;;;;;2.40;0.90;;;27.70;36.70;;;;;;5040594;28;20998;-79
2022/07/14 11:18:28;;;;;;;1.00;0.80;;;27.80;36.00;;;;;;5064204;28;20867;-79
2022/07/14 11:20:59;;;;;;;3.77;1.10;;;26.80;37.30;;;;;;5061556;28;20464;-80
2022/07/14 11:23:28;;;;;;;1.73;0.93;;;26.80;38.60;;;;;;5059317;28;20440;-80
2022/07/14 11:25:57;;;;;;;1.43;0.80;;;26.80;38.50;;;;;;5060068;28;20526;-80
2022/07/14 11:28:38;;;;;;;0.90;0.70;;;26.60;37.70;;;;;;5056020;28;20553;-80
2022/07/14 11:31:11;;;;;;;0.93;0.73;;;26.60;38.70;;;;;;5056375;28;20457;-80
2022/07/14 11:36:17;;;;;;;1.33;0.70;;;27.00;38.10;;;;;;5063504;28;20497;-81
2022/07/14 11:36:28;;;;;;;1.70;0.83;;;27.00;38.40;;;;;;5059365;28;20442;-81
2022/07/14 11:39:24;;;;;;;1.97;0.60;;;26.80;38.00;;;;;;5053256;28;20759;-81
2022/07/14 11:42:03;;;;;;;1.50;0.73;;;27.40;38.90;;;;;;5059695;28;20491;-81
2022/07/14 11:44:51;;;;;;;1.73;0.90;;;27.80;37.90;;;;;;5061051;28;20492;-81
2022/07/14 11:47:20;;;;;;;1.63;0.70;;;27.30;37.60;;;;;;5058969;28;20417;-80
2022/07/14 11:49:58;;;;;;;3.23;1.00;;;26.70;38.50;;;;;;5057774;28;20470;-80
2022/07/14 11:52:37;;;;;;;0.80;0.77;;;26.20;39.70;;;;;;5058818;28;20461;-80
2022/07/14 11:55:08;;;;;;;4.30;1.57;;;26.30;39.70;;;;;;5057807;28;20421;-80
2022/07/14 11:57:36;;;;;;;1.10;0.80;;;26.00;40.00;;;;;;5058013;28;20462;-80
2022/07/14 12:00:08;;;;;;;1.17;0.70;;;26.00;40.90;;;;;;5053415;28;20526;-80
2022/07/14 12:02:39;;;;;;;2.13;0.90;;;25.90;40.10;;;;;;5056615;28;20437;-80
2022/07/14 12:05:08;;;;;;;3.77;0.90;;;25.70;40.00;;;;;;5044468;28;20438;-80
2022/07/14 12:07:46;;;;;;;1.00;0.70;;;25.80;41.30;;;;;;5059825;28;20445;-80
2022/07/14 12:10:16;;;;;;;0.80;0.70;;;26.20;41.20;;;;;;5039411;28;20530;-80
2022/07/14 12:12:47;;;;;;;1.60;0.80;;;26.40;40.20;;;;;;5052301;28;20503;-81
2022/07/14 12:15:22;;;;;;;1.10;0.70;;;26.60;40.20;;;;;;5046027;28;20539;-80
2022/07/14 12:17:51;;;;;;;3.23;0.90;;;26.50;39.80;;;;;;5060453;28;20445;-80
2022/07/14 12:20:19;;;;;;;4.83;0.87;;;26.40;39.40;;;;;;5049540;28;20464;-80
2022/07/14 12:22:52;;;;;;;3.33;0.80;;;26.00;39.60;;;;;;5038666;28;20539;-80
2022/07/14 12:25:27;;;;;;;3.60;1.00;;;26.00;40.20;;;;;;5039703;28;20527;-82
2022/07/14 12:27:57;;;;;;;1.20;0.67;;;25.80;40.00;;;;;;5059368;28;20466;-84
2022/07/14 12:30:25;;;;;;;1.90;1.00;;;26.10;40.20;;;;;;5060966;28;20444;-84
2022/07/14 12:32:54;;;;;;;3.03;1.00;;;26.30;39.00;;;;;;5060653;28;20497;-84
2022/07/14 12:35:22;;;;;;;3.87;1.10;;;26.00;40.40;;;;;;5056590;28;20512;-86
2022/07/14 12:37:51;;;;;;;2.57;1.03;;;25.60;40.30;;;;;;5044481;28;20443;-86
2022/07/14 12:40:41;;;;;;;2.37;0.70;;;25.50;41.70;;;;;;5060866;28;20484;-82
2022/07/14 12:43:11;;;;;;;1.93;1.10;;;26.20;41.50;;;;;;5063463;28;20468;-84
2022/07/14 12:45:58;;;;;;;1.00;0.70;;;26.70;40.60;;;;;;5063167;28;20425;-84
2022/07/14 12:48:27;;;;;;;2.00;0.77;;;26.80;39.30;;;;;;5061068;28;20449;-81
2022/07/14 12:50:55;;;;;;;1.93;0.90;;;26.70;39.10;;;;;;5059438;28;20442;-84
2022/07/14 12:53:23;;;;;;;1.23;0.90;;;27.00;40.40;;;;;;5040615;28;20462;-84
2022/07/14 12:55:59;;;;;;;1.20;1.10;;;27.90;38.60;;;;;;5058369;28;20514;-81
2022/07/14 12:58:28;;;;;;;1.30;0.87;;;27.80;38.70;;;;;;5058528;28;20435;-79
2022/07/14 13:00:56;;;;;;;0.97;0.87;;;27.50;37.90;;;;;;5055673;28;20443;-79
2022/07/14 13:03:24;;;;;;;2.77;0.70;;;28.20;39.10;;;;;;5047003;28;20556;-79
2022/07/14 13:05:53;;;;;;;5.27;0.70;;;28.90;37.60;;;;;;5036210;28;20475;-81
2022/07/14 13:08:34;;;;;;;1.30;0.67;;;29.60;36.70;;;;;;5034569;28;20471;-79